sensor_id;sensor_type;location;lat;lon;timestamp;P1;durP1;ratioP1;P2;durP2;ratioP2
35188;SDS011;21762;54.480;18.556;2023-07-09T00:01:49;13.50;;;6.53;;
35188;SDS011;21762;54.480;18.556;2023-07-09T00:04:18;14.40;;;6.63;;
35188;SDS011;21762;54.480;18.556;2023-07-09T00:06:47;13.98;;;6.70;;
35188;SDS011;21762;54.480;18.556;2023-07-09T00:09:16;14.60;;;7.18;;
35188;SDS011;21762;54.480;18.556;2023-07-09T00:11:46;10.82;;;6.68;;
35188;SDS011;21762;54.480;18.556;2023-07-09T00:14:16;10.70;;;7.05;;
35188;SDS011;21762;54.480;18.556;2023-07-09T00:16:45;14.20;;;6.53;;
35188;SDS011;21762;54.480;18.556;2023-07-09T00:19:15;13.88;;;7.78;;
35188;SDS011;21762;54.480;18.556;2023-07-09T00:21:46;12.40;;;7.78;;
35188;SDS011;21762;54.480;18.556;2023-07-09T00:24:16;15.95;;;7.43;;
35188;SDS011;21762;54.480;18.556;2023-07-09T00:26:44;11.35;;;6.88;;
35188;SDS011;21762;54.480;18.556;2023-07-09T00:29:15;13.20;;;8.23;;
35188;SDS011;21762;54.480;18.556;2023-07-09T00:31:45;13.27;;;7.57;;
35188;SDS011;21762;54.480;18.556;2023-07-09T00:34:14;14.57;;;7.68;;
35188;SDS011;21762;54.480;18.556;2023-07-09T00:36:48;15.57;;;7.72;;
35188;SDS011;21762;54.480;18.556;2023-07-09T00:39:18;14.13;;;8.63;;
35188;SDS011;21762;54.480;18.556;2023-07-09T00:41:48;11.73;;;8.73;;
35188;SDS011;21762;54.480;18.556;2023-07-09T00:44:23;13.63;;;8.50;;
35188;SDS011;21762;54.480;18.556;2023-07-09T00:50:00;16.48;;;7.72;;
35188;SDS011;21762;54.480;18.556;2023-07-09T00:52:33;15.00;;;9.02;;
35188;SDS011;21762;54.480;18.556;2023-07-09T00:55:05;13.80;;;9.20;;
35188;SDS011;21762;54.480;18.556;2023-07-09T00:57:37;18.95;;;10.77;;
35188;SDS011;21762;54.480;18.556;2023-07-09T01:00:11;16.92;;;10.68;;
35188;SDS011;21762;54.480;18.556;2023-07-09T01:02:43;18.92;;;12.30;;
35188;SDS011;21762;54.480;18.556;2023-07-09T01:05:13;24.55;;;11.38;;
35188;SDS011;21762;54.480;18.556;2023-07-09T01:07:44;20.85;;;12.60;;
35188;SDS011;21762;54.480;18.556;2023-07-09T01:10:14;21.02;;;11.90;;
35188;SDS011;21762;54.480;18.556;2023-07-09T01:12:44;17.10;;;11.93;;
35188;SDS011;21762;54.480;18.556;2023-07-09T01:15:14;18.75;;;12.02;;
35188;SDS011;21762;54.480;18.556;2023-07-09T01:17:43;17.48;;;11.73;;
35188;SDS011;21762;54.480;18.556;2023-07-09T01:20:15;19.35;;;12.13;;
35188;SDS011;21762;54.480;18.556;2023-07-09T01:22:50;22.35;;;11.57;;
35188;SDS011;21762;54.480;18.556;2023-07-09T01:25:25;17.67;;;11.00;;
35188;SDS011;21762;54.480;18.556;2023-07-09T01:27:54;19.38;;;11.75;;
35188;SDS011;21762;54.480;18.556;2023-07-09T01:30:25;19.75;;;12.45;;
35188;SDS011;21762;54.480;18.556;2023-07-09T01:32:56;19.13;;;11.68;;
35188;SDS011;21762;54.480;18.556;2023-07-09T01:35:26;18.35;;;10.73;;
35188;SDS011;21762;54.480;18.556;2023-07-09T01:37:57;24.10;;;11.73;;
35188;SDS011;21762;54.480;18.556;2023-07-09T01:40:26;18.90;;;11.38;;
35188;SDS011;21762;54.480;18.556;2023-07-09T01:42:57;16.30;;;10.80;;
35188;SDS011;21762;54.480;18.556;2023-07-09T01:45:26;17.15;;;10.13;;
35188;SDS011;21762;54.480;18.556;2023-07-09T01:47:56;15.15;;;9.88;;
35188;SDS011;21762;54.480;18.556;2023-07-09T01:50:25;15.20;;;10.43;;
35188;SDS011;21762;54.480;18.556;2023-07-09T01:52:57;16.63;;;10.50;;
35188;SDS011;21762;54.480;18.556;2023-07-09T01:55:26;18.85;;;9.05;;
35188;SDS011;21762;54.480;18.556;2023-07-09T01:57:57;16.73;;;10.07;;
35188;SDS011;21762;54.480;18.556;2023-07-09T02:00:25;17.25;;;10.93;;
35188;SDS011;21762;54.480;18.556;2023-07-09T02:02:54;16.50;;;10.50;;
35188;SDS011;21762;54.480;18.556;2023-07-09T02:05:24;16.20;;;10.43;;
35188;SDS011;21762;54.480;18.556;2023-07-09T02:07:53;24.05;;;10.15;;
35188;SDS011;21762;54.480;18.556;2023-07-09T02:10:23;15.93;;;9.90;;
35188;SDS011;21762;54.480;18.556;2023-07-09T02:12:52;18.45;;;9.93;;
35188;SDS011;21762;54.480;18.556;2023-07-09T02:15:20;14.25;;;9.85;;
35188;SDS011;21762;54.480;18.556;2023-07-09T02:17:49;16.98;;;9.90;;
35188;SDS011;21762;54.480;18.556;2023-07-09T02:20:19;16.70;;;9.63;;
35188;SDS011;21762;54.480;18.556;2023-07-09T02:22:49;15.23;;;9.23;;
35188;SDS011;21762;54.480;18.556;2023-07-09T02:25:18;15.05;;;9.30;;
35188;SDS011;21762;54.480;18.556;2023-07-09T02:27:48;14.32;;;10.02;;
35188;SDS011;21762;54.480;18.556;2023-07-09T02:30:17;14.52;;;9.77;;
35188;SDS011;21762;54.480;18.556;2023-07-09T02:32:45;14.55;;;9.90;;
35188;SDS011;21762;54.480;18.556;2023-07-09T02:35:16;16.95;;;10.02;;
35188;SDS011;21762;54.480;18.556;2023-07-09T02:37:44;15.02;;;9.23;;
35188;SDS011;21762;54.480;18.556;2023-07-09T02:40:13;14.80;;;8.77;;
35188;SDS011;21762;54.480;18.556;2023-07-09T02:42:43;13.88;;;8.95;;
35188;SDS011;21762;54.480;18.556;2023-07-09T02:45:18;12.57;;;8.82;;
35188;SDS011;21762;54.480;18.556;2023-07-09T02:47:47;16.02;;;9.60;;
35188;SDS011;21762;54.480;18.556;2023-07-09T02:50:16;13.82;;;9.25;;
35188;SDS011;21762;54.480;18.556;2023-07-09T02:52:44;21.73;;;9.68;;
35188;SDS011;21762;54.480;18.556;2023-07-09T02:55:13;13.73;;;8.75;;
35188;SDS011;21762;54.480;18.556;2023-07-09T02:57:41;17.52;;;9.02;;
35188;SDS011;21762;54.480;18.556;2023-07-09T03:00:10;19.00;;;9.38;;
35188;SDS011;21762;54.480;18.556;2023-07-09T03:02:41;15.27;;;9.98;;
35188;SDS011;21762;54.480;18.556;2023-07-09T03:05:09;15.10;;;9.15;;
35188;SDS011;21762;54.480;18.556;2023-07-09T03:07:38;15.88;;;9.00;;
35188;SDS011;21762;54.480;18.556;2023-07-09T03:10:07;28.58;;;9.32;;
35188;SDS011;21762;54.480;18.556;2023-07-09T03:12:36;19.15;;;10.18;;
35188;SDS011;21762;54.480;18.556;2023-07-09T03:15:05;11.90;;;8.80;;
35188;SDS011;21762;54.480;18.556;2023-07-09T03:17:34;18.10;;;9.02;;
35188;SDS011;21762;54.480;18.556;2023-07-09T03:20:04;15.18;;;8.95;;
35188;SDS011;21762;54.480;18.556;2023-07-09T03:25:03;12.55;;;8.98;;
35188;SDS011;21762;54.480;18.556;2023-07-09T03:27:32;15.45;;;8.88;;
35188;SDS011;21762;54.480;18.556;2023-07-09T03:30:00;14.57;;;9.27;;
35188;SDS011;21762;54.480;18.556;2023-07-09T03:32:30;13.60;;;8.52;;
35188;SDS011;21762;54.480;18.556;2023-07-09T03:34:58;15.35;;;9.50;;
35188;SDS011;21762;54.480;18.556;2023-07-09T03:37:28;10.43;;;8.32;;
35188;SDS011;21762;54.480;18.556;2023-07-09T03:39:57;13.88;;;9.30;;
35188;SDS011;21762;54.480;18.556;2023-07-09T03:42:25;12.50;;;8.55;;
35188;SDS011;21762;54.480;18.556;2023-07-09T03:44:54;14.50;;;9.13;;
35188;SDS011;21762;54.480;18.556;2023-07-09T03:47:22;10.43;;;8.07;;
35188;SDS011;21762;54.480;18.556;2023-07-09T03:49:51;12.52;;;8.20;;
35188;SDS011;21762;54.480;18.556;2023-07-09T03:52:19;13.57;;;7.90;;
35188;SDS011;21762;54.480;18.556;2023-07-09T03:54:49;12.60;;;8.23;;
35188;SDS011;21762;54.480;18.556;2023-07-09T03:57:18;13.85;;;8.88;;
35188;SDS011;21762;54.480;18.556;2023-07-09T03:59:46;10.88;;;8.35;;
35188;SDS011;21762;54.480;18.556;2023-07-09T04:02:15;11.40;;;8.15;;
35188;SDS011;21762;54.480;18.556;2023-07-09T04:04:43;10.85;;;8.23;;
35188;SDS011;21762;54.480;18.556;2023-07-09T04:07:12;13.30;;;8.35;;
35188;SDS011;21762;54.480;18.556;2023-07-09T04:09:40;9.57;;;7.47;;
35188;SDS011;21762;54.480;18.556;2023-07-09T04:12:10;10.52;;;7.55;;
35188;SDS011;21762;54.480;18.556;2023-07-09T04:14:39;11.07;;;7.68;;
35188;SDS011;21762;54.480;18.556;2023-07-09T04:17:08;10.93;;;7.25;;
35188;SDS011;21762;54.480;18.556;2023-07-09T04:19:37;13.18;;;7.50;;
35188;SDS011;21762;54.480;18.556;2023-07-09T04:22:05;10.93;;;6.90;;
35188;SDS011;21762;54.480;18.556;2023-07-09T04:24:34;13.02;;;6.97;;
35188;SDS011;21762;54.480;18.556;2023-07-09T04:27:02;10.70;;;7.22;;
35188;SDS011;21762;54.480;18.556;2023-07-09T04:29:33;13.40;;;7.43;;
35188;SDS011;21762;54.480;18.556;2023-07-09T04:32:02;12.82;;;7.40;;
35188;SDS011;21762;54.480;18.556;2023-07-09T04:34:31;10.02;;;6.75;;
35188;SDS011;21762;54.480;18.556;2023-07-09T04:36:59;15.30;;;7.43;;
35188;SDS011;21762;54.480;18.556;2023-07-09T04:39:28;9.63;;;6.63;;
35188;SDS011;21762;54.480;18.556;2023-07-09T04:41:56;13.55;;;7.38;;
35188;SDS011;21762;54.480;18.556;2023-07-09T04:44:25;12.98;;;7.35;;
35188;SDS011;21762;54.480;18.556;2023-07-09T04:46:55;11.65;;;6.78;;
35188;SDS011;21762;54.480;18.556;2023-07-09T04:49:23;10.82;;;6.30;;
35188;SDS011;21762;54.480;18.556;2023-07-09T04:51:52;10.50;;;6.55;;
35188;SDS011;21762;54.480;18.556;2023-07-09T04:54:21;15.65;;;6.30;;
35188;SDS011;21762;54.480;18.556;2023-07-09T04:56:49;11.88;;;6.45;;
35188;SDS011;21762;54.480;18.556;2023-07-09T04:59:18;8.77;;;6.50;;
35188;SDS011;21762;54.480;18.556;2023-07-09T05:01:47;10.32;;;6.55;;
35188;SDS011;21762;54.480;18.556;2023-07-09T05:04:17;9.43;;;6.35;;
35188;SDS011;21762;54.480;18.556;2023-07-09T05:06:46;10.20;;;7.03;;
35188;SDS011;21762;54.480;18.556;2023-07-09T05:09:15;12.10;;;6.75;;
35188;SDS011;21762;54.480;18.556;2023-07-09T05:11:43;8.52;;;6.25;;
35188;SDS011;21762;54.480;18.556;2023-07-09T05:14:12;9.80;;;6.47;;
35188;SDS011;21762;54.480;18.556;2023-07-09T05:16:40;12.18;;;6.55;;
35188;SDS011;21762;54.480;18.556;2023-07-09T05:19:09;8.20;;;5.80;;
35188;SDS011;21762;54.480;18.556;2023-07-09T05:21:39;10.80;;;6.28;;
35188;SDS011;21762;54.480;18.556;2023-07-09T05:24:08;10.40;;;6.07;;
35188;SDS011;21762;54.480;18.556;2023-07-09T05:26:36;10.65;;;6.15;;
35188;SDS011;21762;54.480;18.556;2023-07-09T05:29:05;10.60;;;6.25;;
35188;SDS011;21762;54.480;18.556;2023-07-09T05:31:34;10.57;;;5.68;;
35188;SDS011;21762;54.480;18.556;2023-07-09T05:34:03;11.18;;;5.68;;
35188;SDS011;21762;54.480;18.556;2023-07-09T05:36:32;6.93;;;5.40;;
35188;SDS011;21762;54.480;18.556;2023-07-09T05:39:01;11.38;;;5.45;;
35188;SDS011;21762;54.480;18.556;2023-07-09T05:41:30;8.63;;;4.90;;
35188;SDS011;21762;54.480;18.556;2023-07-09T05:43:59;5.90;;;4.35;;
35188;SDS011;21762;54.480;18.556;2023-07-09T05:46:27;9.18;;;4.45;;
35188;SDS011;21762;54.480;18.556;2023-07-09T05:48:56;5.55;;;4.03;;
35188;SDS011;21762;54.480;18.556;2023-07-09T05:51:24;6.45;;;4.15;;
35188;SDS011;21762;54.480;18.556;2023-07-09T05:53:53;6.10;;;3.22;;
35188;SDS011;21762;54.480;18.556;2023-07-09T05:56:24;7.57;;;3.45;;
35188;SDS011;21762;54.480;18.556;2023-07-09T05:58:52;7.97;;;3.45;;
35188;SDS011;21762;54.480;18.556;2023-07-09T06:01:21;8.32;;;3.08;;
35188;SDS011;21762;54.480;18.556;2023-07-09T06:03:49;4.53;;;2.83;;
35188;SDS011;21762;54.480;18.556;2023-07-09T06:06:18;6.28;;;3.25;;
35188;SDS011;21762;54.480;18.556;2023-07-09T06:08:47;3.72;;;2.50;;
35188;SDS011;21762;54.480;18.556;2023-07-09T06:11:17;2.83;;;2.20;;
35188;SDS011;21762;54.480;18.556;2023-07-09T06:13:47;3.63;;;1.38;;
35188;SDS011;21762;54.480;18.556;2023-07-09T06:16:17;2.88;;;1.95;;
35188;SDS011;21762;54.480;18.556;2023-07-09T06:18:46;2.75;;;1.73;;
35188;SDS011;21762;54.480;18.556;2023-07-09T06:21:14;3.15;;;1.88;;
35188;SDS011;21762;54.480;18.556;2023-07-09T06:23:44;3.80;;;1.88;;
35188;SDS011;21762;54.480;18.556;2023-07-09T06:26:13;2.08;;;1.73;;
35188;SDS011;21762;54.480;18.556;2023-07-09T06:28:41;2.28;;;1.80;;
35188;SDS011;21762;54.480;18.556;2023-07-09T06:31:12;1.70;;;1.20;;
35188;SDS011;21762;54.480;18.556;2023-07-09T06:33:41;3.25;;;1.42;;
35188;SDS011;21762;54.480;18.556;2023-07-09T06:36:09;3.22;;;1.10;;
35188;SDS011;21762;54.480;18.556;2023-07-09T06:38:38;3.10;;;1.13;;
35188;SDS011;21762;54.480;18.556;2023-07-09T06:41:07;1.73;;;1.20;;
35188;SDS011;21762;54.480;18.556;2023-07-09T06:43:35;3.10;;;2.60;;
35188;SDS011;21762;54.480;18.556;2023-07-09T06:46:06;6.00;;;2.22;;
35188;SDS011;21762;54.480;18.556;2023-07-09T06:48:38;3.65;;;2.10;;
35188;SDS011;21762;54.480;18.556;2023-07-09T06:51:07;5.30;;;2.40;;
35188;SDS011;21762;54.480;18.556;2023-07-09T06:53:36;5.22;;;2.75;;
35188;SDS011;21762;54.480;18.556;2023-07-09T06:56:04;4.72;;;2.40;;
35188;SDS011;21762;54.480;18.556;2023-07-09T06:58:33;4.70;;;2.50;;
35188;SDS011;21762;54.480;18.556;2023-07-09T07:01:04;6.03;;;3.10;;
35188;SDS011;21762;54.480;18.556;2023-07-09T07:03:33;3.50;;;2.20;;
35188;SDS011;21762;54.480;18.556;2023-07-09T07:06:04;3.05;;;2.50;;
35188;SDS011;21762;54.480;18.556;2023-07-09T07:08:34;5.38;;;3.08;;
35188;SDS011;21762;54.480;18.556;2023-07-09T07:11:03;4.38;;;2.13;;
35188;SDS011;21762;54.480;18.556;2023-07-09T07:13:34;3.20;;;2.40;;
35188;SDS011;21762;54.480;18.556;2023-07-09T07:16:04;3.03;;;2.15;;
35188;SDS011;21762;54.480;18.556;2023-07-09T07:18:34;6.57;;;2.35;;
35188;SDS011;21762;54.480;18.556;2023-07-09T07:21:04;4.43;;;2.40;;
35188;SDS011;21762;54.480;18.556;2023-07-09T07:23:33;3.40;;;2.08;;
35188;SDS011;21762;54.480;18.556;2023-07-09T07:26:02;3.35;;;1.77;;
35188;SDS011;21762;54.480;18.556;2023-07-09T07:28:33;5.15;;;2.00;;
35188;SDS011;21762;54.480;18.556;2023-07-09T07:31:03;6.50;;;2.70;;
35188;SDS011;21762;54.480;18.556;2023-07-09T07:33:33;4.60;;;2.55;;
35188;SDS011;21762;54.480;18.556;2023-07-09T07:36:05;3.47;;;1.85;;
35188;SDS011;21762;54.480;18.556;2023-07-09T07:38:37;4.35;;;2.42;;
35188;SDS011;21762;54.480;18.556;2023-07-09T07:41:05;2.97;;;2.20;;
35188;SDS011;21762;54.480;18.556;2023-07-09T07:43:35;4.07;;;2.00;;
35188;SDS011;21762;54.480;18.556;2023-07-09T07:46:03;3.38;;;2.08;;
35188;SDS011;21762;54.480;18.556;2023-07-09T07:48:32;3.13;;;1.98;;
35188;SDS011;21762;54.480;18.556;2023-07-09T07:51:01;6.13;;;2.03;;
35188;SDS011;21762;54.480;18.556;2023-07-09T07:53:32;3.03;;;1.70;;
35188;SDS011;21762;54.480;18.556;2023-07-09T07:56:01;3.30;;;1.42;;
35188;SDS011;21762;54.480;18.556;2023-07-09T07:58:30;2.78;;;1.60;;
35188;SDS011;21762;54.480;18.556;2023-07-09T08:00:59;3.33;;;1.70;;
35188;SDS011;21762;54.480;18.556;2023-07-09T08:03:28;3.55;;;1.30;;
35188;SDS011;21762;54.480;18.556;2023-07-09T08:05:56;1.35;;;1.08;;
35188;SDS011;21762;54.480;18.556;2023-07-09T08:08:27;2.47;;;1.37;;
35188;SDS011;21762;54.480;18.556;2023-07-09T08:11:01;2.75;;;1.20;;
35188;SDS011;21762;54.480;18.556;2023-07-09T08:13:32;2.45;;;1.20;;
35188;SDS011;21762;54.480;18.556;2023-07-09T08:16:01;1.48;;;0.68;;
35188;SDS011;21762;54.480;18.556;2023-07-09T08:18:30;0.82;;;0.68;;
35188;SDS011;21762;54.480;18.556;2023-07-09T08:20:58;1.08;;;0.57;;
35188;SDS011;21762;54.480;18.556;2023-07-09T08:23:27;1.25;;;0.60;;
35188;SDS011;21762;54.480;18.556;2023-07-09T08:25:56;0.50;;;0.50;;
35188;SDS011;21762;54.480;18.556;2023-07-09T08:28:28;3.15;;;0.50;;
35188;SDS011;21762;54.480;18.556;2023-07-09T08:30:57;1.50;;;0.60;;
35188;SDS011;21762;54.480;18.556;2023-07-09T08:33:26;0.90;;;0.70;;
35188;SDS011;21762;54.480;18.556;2023-07-09T08:35:55;3.13;;;0.85;;
35188;SDS011;21762;54.480;18.556;2023-07-09T08:38:24;2.50;;;0.60;;
35188;SDS011;21762;54.480;18.556;2023-07-09T08:40:54;1.02;;;0.70;;
35188;SDS011;21762;54.480;18.556;2023-07-09T08:43:33;0.40;;;0.40;;
35188;SDS011;21762;54.480;18.556;2023-07-09T08:46:07;1.75;;;0.73;;
35188;SDS011;21762;54.480;18.556;2023-07-09T08:48:41;1.05;;;0.60;;
35188;SDS011;21762;54.480;18.556;2023-07-09T08:51:17;1.45;;;0.63;;
35188;SDS011;21762;54.480;18.556;2023-07-09T08:53:48;1.95;;;0.70;;
35188;SDS011;21762;54.480;18.556;2023-07-09T08:56:19;1.17;;;0.80;;
35188;SDS011;21762;54.480;18.556;2023-07-09T08:58:49;1.55;;;0.68;;
35188;SDS011;21762;54.480;18.556;2023-07-09T09:01:19;2.08;;;0.70;;
35188;SDS011;21762;54.480;18.556;2023-07-09T09:03:51;0.80;;;0.50;;
35188;SDS011;21762;54.480;18.556;2023-07-09T09:06:21;0.90;;;0.70;;
35188;SDS011;21762;54.480;18.556;2023-07-09T09:11:25;1.73;;;0.88;;
35188;SDS011;21762;54.480;18.556;2023-07-09T09:14:09;0.82;;;0.80;;
35188;SDS011;21762;54.480;18.556;2023-07-09T09:16:56;0.68;;;0.55;;
35188;SDS011;21762;54.480;18.556;2023-07-09T09:19:27;1.83;;;0.80;;
35188;SDS011;21762;54.480;18.556;2023-07-09T09:21:58;0.80;;;0.65;;
35188;SDS011;21762;54.480;18.556;2023-07-09T09:24:34;1.48;;;1.00;;
35188;SDS011;21762;54.480;18.556;2023-07-09T09:27:04;2.13;;;0.70;;
35188;SDS011;21762;54.480;18.556;2023-07-09T09:29:34;1.52;;;0.68;;
35188;SDS011;21762;54.480;18.556;2023-07-09T09:32:16;1.63;;;0.82;;
35188;SDS011;21762;54.480;18.556;2023-07-09T09:34:49;1.10;;;0.95;;
35188;SDS011;21762;54.480;18.556;2023-07-09T09:37:23;1.35;;;0.63;;
35188;SDS011;21762;54.480;18.556;2023-07-09T09:39:53;4.47;;;1.00;;
35188;SDS011;21762;54.480;18.556;2023-07-09T09:42:33;2.13;;;0.80;;
35188;SDS011;21762;54.480;18.556;2023-07-09T09:45:07;1.23;;;0.70;;
35188;SDS011;21762;54.480;18.556;2023-07-09T09:47:39;0.85;;;0.85;;
35188;SDS011;21762;54.480;18.556;2023-07-09T09:50:08;3.97;;;1.50;;
35188;SDS011;21762;54.480;18.556;2023-07-09T09:52:38;3.13;;;0.98;;
35188;SDS011;21762;54.480;18.556;2023-07-09T09:55:09;2.42;;;1.10;;
35188;SDS011;21762;54.480;18.556;2023-07-09T09:57:40;3.90;;;0.80;;
35188;SDS011;21762;54.480;18.556;2023-07-09T10:00:18;1.25;;;0.90;;
35188;SDS011;21762;54.480;18.556;2023-07-09T10:02:47;2.25;;;1.02;;
35188;SDS011;21762;54.480;18.556;2023-07-09T10:05:18;1.60;;;1.10;;
35188;SDS011;21762;54.480;18.556;2023-07-09T10:07:54;4.20;;;1.33;;
35188;SDS011;21762;54.480;18.556;2023-07-09T10:10:29;2.08;;;1.00;;
35188;SDS011;21762;54.480;18.556;2023-07-09T10:13:02;0.82;;;0.80;;
35188;SDS011;21762;54.480;18.556;2023-07-09T10:15:39;1.83;;;1.10;;
35188;SDS011;21762;54.480;18.556;2023-07-09T10:18:14;2.33;;;1.10;;
35188;SDS011;21762;54.480;18.556;2023-07-09T10:21:00;1.35;;;0.88;;
35188;SDS011;21762;54.480;18.556;2023-07-09T10:23:35;0.93;;;0.80;;
35188;SDS011;21762;54.480;18.556;2023-07-09T10:26:10;3.40;;;0.80;;
35188;SDS011;21762;54.480;18.556;2023-07-09T10:31:38;2.30;;;0.80;;
35188;SDS011;21762;54.480;18.556;2023-07-09T10:34:16;1.15;;;0.60;;
35188;SDS011;21762;54.480;18.556;2023-07-09T10:36:57;1.02;;;0.80;;
35188;SDS011;21762;54.480;18.556;2023-07-09T10:39:33;2.45;;;0.95;;
35188;SDS011;21762;54.480;18.556;2023-07-09T10:42:03;0.73;;;0.70;;
35188;SDS011;21762;54.480;18.556;2023-07-09T10:44:34;1.27;;;0.68;;
35188;SDS011;21762;54.480;18.556;2023-07-09T10:47:06;1.30;;;0.60;;
35188;SDS011;21762;54.480;18.556;2023-07-09T10:49:39;1.02;;;0.90;;
35188;SDS011;21762;54.480;18.556;2023-07-09T10:52:11;0.70;;;0.70;;
35188;SDS011;21762;54.480;18.556;2023-07-09T10:54:48;1.10;;;0.63;;
35188;SDS011;21762;54.480;18.556;2023-07-09T10:57:22;0.55;;;0.55;;
35188;SDS011;21762;54.480;18.556;2023-07-09T10:59:53;1.13;;;0.80;;
35188;SDS011;21762;54.480;18.556;2023-07-09T11:02:25;1.05;;;0.60;;
35188;SDS011;21762;54.480;18.556;2023-07-09T11:04:56;1.63;;;0.80;;
35188;SDS011;21762;54.480;18.556;2023-07-09T11:07:26;1.23;;;0.82;;
35188;SDS011;21762;54.480;18.556;2023-07-09T11:09:57;0.90;;;0.50;;
35188;SDS011;21762;54.480;18.556;2023-07-09T11:12:28;2.17;;;0.60;;
35188;SDS011;21762;54.480;18.556;2023-07-09T11:17:29;2.88;;;0.73;;
35188;SDS011;21762;54.480;18.556;2023-07-09T11:20:05;0.90;;;0.60;;
35188;SDS011;21762;54.480;18.556;2023-07-09T11:22:36;1.10;;;0.80;;
35188;SDS011;21762;54.480;18.556;2023-07-09T11:25:07;4.47;;;1.10;;
35188;SDS011;21762;54.480;18.556;2023-07-09T11:27:48;0.65;;;0.47;;
35188;SDS011;21762;54.480;18.556;2023-07-09T11:30:19;1.73;;;0.65;;
35188;SDS011;21762;54.480;18.556;2023-07-09T11:32:54;1.98;;;0.82;;
35188;SDS011;21762;54.480;18.556;2023-07-09T11:35:43;1.08;;;0.77;;
35188;SDS011;21762;54.480;18.556;2023-07-09T11:38:15;2.90;;;0.60;;
35188;SDS011;21762;54.480;18.556;2023-07-09T11:43:28;1.42;;;0.80;;
35188;SDS011;21762;54.480;18.556;2023-07-09T11:46:10;1.00;;;0.90;;
35188;SDS011;21762;54.480;18.556;2023-07-09T11:48:41;1.27;;;0.93;;
35188;SDS011;21762;54.480;18.556;2023-07-09T11:51:13;1.30;;;0.65;;
35188;SDS011;21762;54.480;18.556;2023-07-09T11:53:46;1.15;;;0.85;;
35188;SDS011;21762;54.480;18.556;2023-07-09T11:58:49;1.33;;;0.90;;
35188;SDS011;21762;54.480;18.556;2023-07-09T12:01:19;2.72;;;1.27;;
35188;SDS011;21762;54.480;18.556;2023-07-09T12:03:51;1.27;;;1.17;;
35188;SDS011;21762;54.480;18.556;2023-07-09T12:06:20;6.47;;;1.88;;
35188;SDS011;21762;54.480;18.556;2023-07-09T12:08:51;1.02;;;0.75;;
35188;SDS011;21762;54.480;18.556;2023-07-09T12:11:21;1.50;;;0.88;;
35188;SDS011;21762;54.480;18.556;2023-07-09T12:13:50;3.40;;;1.10;;
35188;SDS011;21762;54.480;18.556;2023-07-09T12:16:20;1.92;;;1.30;;
35188;SDS011;21762;54.480;18.556;2023-07-09T12:18:52;1.90;;;1.30;;
35188;SDS011;21762;54.480;18.556;2023-07-09T12:21:21;3.35;;;1.30;;
35188;SDS011;21762;54.480;18.556;2023-07-09T12:23:50;2.75;;;1.40;;
35188;SDS011;21762;54.480;18.556;2023-07-09T12:26:20;1.65;;;1.15;;
35188;SDS011;21762;54.480;18.556;2023-07-09T12:28:51;1.98;;;1.23;;
35188;SDS011;21762;54.480;18.556;2023-07-09T12:31:21;4.20;;;1.33;;
35188;SDS011;21762;54.480;18.556;2023-07-09T12:33:58;2.33;;;1.20;;
35188;SDS011;21762;54.480;18.556;2023-07-09T12:36:27;3.97;;;1.30;;
35188;SDS011;21762;54.480;18.556;2023-07-09T12:38:57;3.17;;;1.35;;
35188;SDS011;21762;54.480;18.556;2023-07-09T12:41:37;2.45;;;1.20;;
35188;SDS011;21762;54.480;18.556;2023-07-09T12:44:09;2.03;;;1.20;;
35188;SDS011;21762;54.480;18.556;2023-07-09T12:46:46;3.53;;;1.65;;
35188;SDS011;21762;54.480;18.556;2023-07-09T12:49:24;2.90;;;1.45;;
35188;SDS011;21762;54.480;18.556;2023-07-09T12:51:54;3.13;;;1.33;;
35188;SDS011;21762;54.480;18.556;2023-07-09T12:54:24;2.38;;;1.20;;
35188;SDS011;21762;54.480;18.556;2023-07-09T12:56:54;4.10;;;1.55;;
35188;SDS011;21762;54.480;18.556;2023-07-09T12:59:24;3.83;;;1.65;;
35188;SDS011;21762;54.480;18.556;2023-07-09T13:01:55;2.92;;;1.80;;
35188;SDS011;21762;54.480;18.556;2023-07-09T13:04:31;2.03;;;1.33;;
35188;SDS011;21762;54.480;18.556;2023-07-09T13:07:01;4.60;;;1.70;;
35188;SDS011;21762;54.480;18.556;2023-07-09T13:09:31;3.22;;;1.83;;
35188;SDS011;21762;54.480;18.556;2023-07-09T13:11:59;3.30;;;1.77;;
35188;SDS011;21762;54.480;18.556;2023-07-09T13:14:32;4.22;;;2.15;;
35188;SDS011;21762;54.480;18.556;2023-07-09T13:17:04;3.65;;;2.08;;
35188;SDS011;21762;54.480;18.556;2023-07-09T13:19:36;3.15;;;1.70;;
35188;SDS011;21762;54.480;18.556;2023-07-09T13:22:05;5.40;;;2.42;;
35188;SDS011;21762;54.480;18.556;2023-07-09T13:24:35;3.25;;;1.80;;
35188;SDS011;21762;54.480;18.556;2023-07-09T13:27:04;4.78;;;1.70;;
35188;SDS011;21762;54.480;18.556;2023-07-09T13:29:34;3.67;;;2.03;;
35188;SDS011;21762;54.480;18.556;2023-07-09T13:32:04;3.50;;;2.00;;
35188;SDS011;21762;54.480;18.556;2023-07-09T13:34:38;3.42;;;1.80;;
35188;SDS011;21762;54.480;18.556;2023-07-09T13:37:09;2.00;;;1.55;;
35188;SDS011;21762;54.480;18.556;2023-07-09T13:39:40;4.63;;;2.08;;
35188;SDS011;21762;54.480;18.556;2023-07-09T13:42:10;1.90;;;1.42;;
35188;SDS011;21762;54.480;18.556;2023-07-09T13:44:40;2.83;;;1.60;;
35188;SDS011;21762;54.480;18.556;2023-07-09T13:47:11;3.35;;;1.60;;
35188;SDS011;21762;54.480;18.556;2023-07-09T13:49:44;3.58;;;1.67;;
35188;SDS011;21762;54.480;18.556;2023-07-09T13:52:16;2.10;;;1.90;;
35188;SDS011;21762;54.480;18.556;2023-07-09T13:54:46;3.70;;;2.22;;
35188;SDS011;21762;54.480;18.556;2023-07-09T13:57:16;4.47;;;1.80;;
35188;SDS011;21762;54.480;18.556;2023-07-09T13:59:48;3.85;;;2.42;;
35188;SDS011;21762;54.480;18.556;2023-07-09T14:02:22;3.97;;;1.88;;
35188;SDS011;21762;54.480;18.556;2023-07-09T14:04:54;4.38;;;1.95;;
35188;SDS011;21762;54.480;18.556;2023-07-09T14:07:25;2.78;;;2.30;;
35188;SDS011;21762;54.480;18.556;2023-07-09T14:09:55;3.03;;;2.10;;
35188;SDS011;21762;54.480;18.556;2023-07-09T14:12:29;4.40;;;2.17;;
35188;SDS011;21762;54.480;18.556;2023-07-09T14:15:01;7.10;;;2.30;;
35188;SDS011;21762;54.480;18.556;2023-07-09T14:17:30;3.63;;;2.42;;
35188;SDS011;21762;54.480;18.556;2023-07-09T14:20:01;3.55;;;2.22;;
35188;SDS011;21762;54.480;18.556;2023-07-09T14:22:32;5.97;;;2.30;;
35188;SDS011;21762;54.480;18.556;2023-07-09T14:25:03;2.50;;;2.00;;
35188;SDS011;21762;54.480;18.556;2023-07-09T14:27:33;3.10;;;1.75;;
35188;SDS011;21762;54.480;18.556;2023-07-09T14:30:02;4.45;;;2.22;;
35188;SDS011;21762;54.480;18.556;2023-07-09T14:32:32;4.18;;;2.33;;
35188;SDS011;21762;54.480;18.556;2023-07-09T14:35:11;5.47;;;2.20;;
35188;SDS011;21762;54.480;18.556;2023-07-09T14:37:42;4.22;;;1.98;;
35188;SDS011;21762;54.480;18.556;2023-07-09T14:40:12;3.45;;;2.10;;
35188;SDS011;21762;54.480;18.556;2023-07-09T14:42:41;5.13;;;2.35;;
35188;SDS011;21762;54.480;18.556;2023-07-09T14:45:22;3.15;;;2.35;;
35188;SDS011;21762;54.480;18.556;2023-07-09T14:48:08;3.30;;;1.70;;
35188;SDS011;21762;54.480;18.556;2023-07-09T14:50:58;5.60;;;1.85;;
35188;SDS011;21762;54.480;18.556;2023-07-09T14:53:27;3.08;;;1.83;;
35188;SDS011;21762;54.480;18.556;2023-07-09T14:55:56;5.60;;;2.15;;
35188;SDS011;21762;54.480;18.556;2023-07-09T14:58:25;2.40;;;2.00;;
35188;SDS011;21762;54.480;18.556;2023-07-09T15:00:54;2.58;;;1.75;;
35188;SDS011;21762;54.480;18.556;2023-07-09T15:03:23;5.22;;;2.20;;
35188;SDS011;21762;54.480;18.556;2023-07-09T15:05:54;2.97;;;2.08;;
35188;SDS011;21762;54.480;18.556;2023-07-09T15:08:24;3.15;;;1.88;;